createdAt,value
2018-07-31T00:01:52.117Z,21.13
2018-07-31T00:04:20.129Z,21.10
2018-07-31T00:06:47.055Z,21.02
2018-07-31T00:09:13.960Z,20.95
2018-07-31T00:11:40.915Z,21.42
2018-07-31T00:14:07.838Z,20.94
2018-07-31T00:16:34.742Z,20.99
2018-07-31T00:19:01.693Z,21.16
2018-07-31T00:21:28.666Z,21.19
2018-07-31T00:23:55.587Z,21.28
2018-07-31T00:26:22.480Z,21.25
2018-07-31T00:28:49.426Z,21.18
2018-07-31T00:31:16.347Z,21.07
2018-07-31T00:33:43.276Z,20.99
2018-07-31T00:36:10.207Z,21.44
2018-07-31T00:38:37.124Z,20.89
2018-07-31T00:41:04.054Z,20.73
2018-07-31T00:43:31.962Z,20.60
2018-07-31T00:45:58.868Z,20.59
2018-07-31T00:48:25.844Z,20.58
2018-07-31T00:50:52.772Z,20.61
2018-07-31T00:53:19.690Z,20.75
2018-07-31T00:55:46.595Z,20.73
2018-07-31T00:58:13.523Z,20.65
2018-07-31T01:00:40.445Z,20.78
2018-07-31T01:03:07.393Z,20.81
2018-07-31T01:05:35.274Z,20.75
2018-07-31T01:08:02.296Z,20.91
2018-07-31T01:10:29.249Z,21.19
2018-07-31T01:12:56.168Z,20.75
2018-07-31T01:15:23.110Z,20.59
2018-07-31T01:17:50.009Z,20.45
2018-07-31T01:20:16.918Z,20.40
2018-07-31T01:22:43.880Z,20.51
2018-07-31T01:25:10.798Z,20.49
2018-07-31T01:27:37.749Z,21.02
2018-07-31T01:30:04.862Z,20.40
2018-07-31T01:32:31.814Z,20.37
2018-07-31T01:34:58.748Z,20.13
2018-07-31T01:37:25.681Z,20.01
2018-07-31T01:39:52.670Z,20.04
2018-07-31T01:42:19.658Z,20.06
2018-07-31T01:44:46.573Z,20.21
2018-07-31T01:47:13.531Z,20.64
2018-07-31T01:49:40.484Z,20.80
2018-07-31T01:52:07.740Z,20.07
2018-07-31T01:54:34.680Z,19.96
2018-07-31T01:57:01.592Z,20.00
2018-07-31T01:59:28.498Z,19.88
2018-07-31T02:01:55.409Z,19.68
2018-07-31T02:04:22.338Z,19.76
2018-07-31T02:06:49.261Z,19.74
2018-07-31T02:09:16.180Z,19.69
2018-07-31T02:11:43.094Z,19.73
2018-07-31T02:14:10.000Z,19.88
2018-07-31T02:16:36.924Z,19.95
2018-07-31T02:19:03.858Z,19.94
2018-07-31T02:21:30.801Z,20.01
2018-07-31T02:23:57.723Z,20.03
2018-07-31T02:26:24.618Z,20.04
2018-07-31T02:28:51.542Z,20.11
2018-07-31T02:31:18.449Z,20.23
2018-07-31T02:33:45.386Z,20.18
2018-07-31T02:36:12.300Z,20.11
2018-07-31T02:38:39.226Z,19.95
2018-07-31T02:41:06.248Z,20.39
2018-07-31T02:43:33.196Z,20.48
2018-07-31T02:46:00.158Z,19.89
2018-07-31T02:48:27.084Z,19.43
2018-07-31T02:50:54.011Z,19.43
2018-07-31T02:53:20.985Z,19.51
2018-07-31T02:55:47.933Z,19.62
2018-07-31T02:58:14.862Z,19.71
2018-07-31T03:00:41.768Z,19.59
2018-07-31T03:03:08.686Z,20.07
2018-07-31T03:05:35.618Z,19.75
2018-07-31T03:08:02.600Z,19.66
2018-07-31T03:10:29.493Z,19.34
2018-07-31T03:12:56.426Z,19.02
2018-07-31T03:15:23.336Z,19.24
2018-07-31T03:17:50.285Z,19.40
2018-07-31T03:20:17.235Z,19.05
2018-07-31T03:22:44.112Z,18.68
2018-07-31T03:25:11.034Z,18.68
2018-07-31T03:27:37.973Z,18.80
2018-07-31T03:30:04.972Z,18.86
2018-07-31T03:32:31.916Z,18.97
2018-07-31T03:34:58.847Z,18.86
2018-07-31T03:37:25.750Z,18.63
2018-07-31T03:39:52.682Z,18.51
2018-07-31T03:42:19.635Z,18.27
2018-07-31T03:44:46.676Z,18.42
2018-07-31T03:47:13.603Z,18.56
2018-07-31T03:49:42.444Z,18.70
2018-07-31T03:52:09.385Z,18.70
2018-07-31T03:54:36.362Z,18.71
2018-07-31T03:57:03.352Z,19.31
2018-07-31T03:59:31.466Z,18.87
2018-07-31T04:01:58.578Z,19.53
2018-07-31T04:04:28.740Z,19.76
2018-07-31T04:06:55.646Z,19.52
2018-07-31T04:09:22.585Z,19.44
2018-07-31T04:11:49.500Z,19.42
2018-07-31T04:14:16.450Z,19.35
2018-07-31T04:16:43.341Z,19.49
2018-07-31T04:19:10.284Z,19.56
2018-07-31T04:21:37.172Z,19.65
2018-07-31T04:24:04.060Z,19.66
2018-07-31T04:26:30.935Z,20.10
2018-07-31T04:28:57.801Z,20.05
2018-07-31T04:31:24.680Z,20.51
2018-07-31T04:33:51.605Z,21.02
2018-07-31T04:36:18.656Z,21.30
2018-07-31T04:38:45.464Z,21.96
2018-07-31T04:41:12.409Z,22.07
2018-07-31T04:43:39.257Z,22.51
2018-07-31T04:46:06.228Z,22.70
2018-07-31T04:48:33.116Z,23.04
2018-07-31T04:50:59.992Z,23.59
2018-07-31T04:53:26.934Z,23.63
2018-07-31T04:55:53.839Z,23.53
2018-07-31T04:58:20.759Z,23.76
2018-07-31T05:00:47.637Z,23.61
2018-07-31T05:03:14.520Z,23.60
2018-07-31T05:05:41.413Z,23.41
2018-07-31T05:08:08.363Z,23.54
2018-07-31T05:10:35.293Z,24.22
2018-07-31T05:13:02.421Z,23.25
2018-07-31T05:15:29.286Z,23.16
2018-07-31T05:17:56.180Z,23.13
2018-07-31T05:20:23.056Z,23.07
2018-07-31T05:22:49.978Z,23.28
2018-07-31T05:25:16.972Z,23.63
2018-07-31T05:27:43.869Z,23.76
2018-07-31T05:30:10.747Z,23.89
2018-07-31T05:32:37.872Z,24.09
2018-07-31T05:35:05.068Z,23.99
2018-07-31T05:37:31.948Z,25.00
2018-07-31T05:39:58.834Z,24.88
2018-07-31T05:42:25.712Z,25.69
2018-07-31T05:44:52.616Z,25.46
2018-07-31T05:47:19.505Z,25.09
2018-07-31T05:49:46.424Z,25.16
2018-07-31T05:52:13.304Z,25.77
2018-07-31T05:54:40.209Z,25.59
2018-07-31T05:57:07.096Z,26.11
2018-07-31T05:59:33.972Z,26.33
2018-07-31T06:02:00.891Z,26.52
2018-07-31T06:04:27.773Z,27.05
2018-07-31T06:06:54.650Z,26.83
2018-07-31T06:09:21.593Z,27.01
2018-07-31T06:11:48.488Z,27.02
2018-07-31T06:14:15.444Z,27.21
2018-07-31T06:16:42.324Z,27.39
2018-07-31T06:19:09.380Z,27.45
2018-07-31T06:21:36.630Z,27.39
2018-07-31T06:24:03.528Z,27.33
2018-07-31T06:26:30.413Z,27.15
2018-07-31T06:28:57.320Z,27.46
2018-07-31T06:31:24.242Z,27.47
2018-07-31T06:33:51.137Z,27.84
2018-07-31T06:36:18.088Z,28.06
2018-07-31T06:38:44.981Z,28.22
2018-07-31T06:41:11.884Z,27.98
2018-07-31T06:43:38.760Z,28.90
2018-07-31T06:46:05.663Z,28.05
2018-07-31T06:48:32.568Z,28.22
2018-07-31T06:50:59.468Z,28.39
2018-07-31T06:53:26.364Z,28.46
2018-07-31T06:55:53.271Z,28.57
2018-07-31T06:58:20.177Z,28.76
2018-07-31T07:00:47.077Z,29.39
2018-07-31T07:03:13.969Z,29.09
2018-07-31T07:05:40.850Z,29.07
2018-07-31T07:08:10.753Z,29.39
2018-07-31T07:10:37.748Z,29.63
2018-07-31T07:13:04.664Z,29.91
2018-07-31T07:15:31.585Z,30.50
2018-07-31T07:17:58.482Z,30.09
2018-07-31T07:20:25.424Z,30.13
2018-07-31T07:22:52.331Z,30.07
2018-07-31T07:25:19.216Z,30.20
2018-07-31T07:27:46.168Z,30.63
2018-07-31T07:30:13.009Z,30.59
2018-07-31T07:32:39.888Z,30.31
2018-07-31T07:35:07.842Z,30.37
2018-07-31T07:37:34.724Z,30.29
2018-07-31T07:40:01.647Z,30.56
2018-07-31T07:42:28.537Z,30.70
2018-07-31T07:44:55.410Z,31.27
2018-07-31T07:47:22.300Z,30.93
2018-07-31T07:49:49.201Z,31.07
2018-07-31T07:52:16.092Z,31.16
2018-07-31T07:54:43.077Z,30.96
2018-07-31T07:57:09.993Z,31.13
2018-07-31T07:59:37.320Z,31.18
2018-07-31T08:02:04.230Z,30.98
2018-07-31T08:04:31.972Z,31.19
2018-07-31T08:06:58.895Z,30.97
2018-07-31T08:09:25.788Z,31.64
2018-07-31T08:11:52.700Z,31.79
2018-07-31T08:14:19.621Z,31.99
2018-07-31T08:16:46.525Z,31.59
2018-07-31T08:19:13.423Z,32.31
2018-07-31T08:21:40.323Z,32.01
2018-07-31T08:24:07.204Z,31.96
2018-07-31T08:26:34.280Z,31.95
2018-07-31T08:29:01.167Z,32.26
2018-07-31T08:31:28.057Z,32.44
2018-07-31T08:33:54.952Z,32.46
2018-07-31T08:36:21.852Z,32.73
2018-07-31T08:38:48.774Z,32.45
2018-07-31T08:41:15.688Z,32.76
2018-07-31T08:43:42.600Z,32.35
2018-07-31T08:46:09.564Z,32.29
2018-07-31T08:48:40.199Z,32.76
2018-07-31T08:51:08.133Z,33.10
2018-07-31T08:53:36.089Z,32.81
2018-07-31T08:56:03.096Z,33.38
2018-07-31T08:58:42.548Z,33.39
2018-07-31T09:01:09.483Z,33.22
2018-07-31T09:03:36.444Z,33.65
2018-07-31T09:06:03.823Z,33.79
2018-07-31T09:08:31.568Z,33.81
2018-07-31T09:10:58.344Z,33.74
2018-07-31T09:13:33.129Z,33.38
2018-07-31T09:16:00.010Z,33.23
2018-07-31T09:18:26.914Z,33.28
2018-07-31T09:20:53.977Z,33.44
2018-07-31T09:23:20.925Z,33.75
2018-07-31T09:25:48.540Z,34.19
2018-07-31T09:28:16.857Z,33.90
2018-07-31T09:30:49.775Z,34.26
2018-07-31T09:33:16.620Z,34.42
2018-07-31T09:35:44.543Z,34.58
2018-07-31T09:38:11.631Z,34.83
2018-07-31T09:40:39.193Z,35.35
2018-07-31T09:43:06.025Z,34.90
2018-07-31T09:45:32.916Z,34.99
2018-07-31T09:47:59.879Z,35.05
2018-07-31T09:50:26.879Z,34.88
2018-07-31T09:52:53.897Z,35.52
2018-07-31T09:55:20.788Z,35.93
2018-07-31T09:57:47.689Z,36.05
2018-07-31T10:00:17.924Z,35.76
2018-07-31T10:02:44.980Z,36.19
2018-07-31T10:05:11.968Z,36.06
2018-07-31T10:07:38.876Z,36.39
2018-07-31T10:10:05.770Z,35.81
2018-07-31T10:12:32.686Z,35.63
2018-07-31T10:14:59.569Z,36.12
2018-07-31T10:17:26.493Z,35.98
2018-07-31T10:19:53.428Z,35.03
2018-07-31T10:22:20.341Z,35.82
2018-07-31T10:24:47.244Z,35.68
2018-07-31T10:27:14.145Z,36.22
2018-07-31T10:29:41.088Z,36.52
2018-07-31T10:32:08.017Z,36.86
2018-07-31T10:34:34.924Z,37.18
2018-07-31T10:37:01.821Z,36.09
2018-07-31T10:39:28.751Z,35.84
2018-07-31T10:41:55.681Z,36.26
2018-07-31T10:44:22.631Z,36.01
2018-07-31T10:46:49.520Z,36.42
2018-07-31T10:49:16.429Z,36.33
2018-07-31T10:51:44.114Z,36.52
2018-07-31T10:54:11.485Z,36.13
2018-07-31T10:56:39.535Z,35.77
2018-07-31T10:59:07.336Z,35.72
2018-07-31T11:01:34.290Z,36.54
2018-07-31T11:04:01.344Z,36.51
2018-07-31T11:06:28.209Z,37.06
2018-07-31T11:08:55.126Z,37.19
2018-07-31T11:11:22.135Z,37.65
2018-07-31T11:13:49.056Z,36.67
2018-07-31T11:16:16.033Z,36.75
2018-07-31T11:18:43.604Z,37.25
2018-07-31T11:21:10.609Z,36.86
2018-07-31T11:23:37.536Z,36.85
2018-07-31T11:26:04.674Z,37.18
2018-07-31T11:28:31.631Z,37.22
2018-07-31T11:30:58.648Z,37.18
2018-07-31T11:33:26.661Z,36.95
2018-07-31T11:35:53.640Z,37.27
2018-07-31T11:38:21.215Z,36.78
2018-07-31T11:40:48.716Z,36.51
2018-07-31T11:43:15.634Z,36.69
2018-07-31T11:45:42.661Z,37.41
2018-07-31T11:48:09.550Z,36.63
2018-07-31T11:50:36.597Z,36.58
2018-07-31T11:53:03.525Z,37.09
2018-07-31T11:55:30.523Z,37.01
2018-07-31T11:57:57.440Z,37.33
2018-07-31T12:00:25.549Z,36.88
2018-07-31T12:02:52.592Z,37.51
2018-07-31T12:05:19.609Z,37.68
2018-07-31T12:07:46.570Z,37.58
2018-07-31T12:10:13.546Z,37.59
2018-07-31T12:12:40.592Z,37.72
2018-07-31T12:15:07.551Z,37.72
2018-07-31T12:17:35.521Z,37.57
2018-07-31T12:20:02.579Z,37.69
2018-07-31T12:22:29.579Z,37.88
2018-07-31T12:24:56.517Z,37.83
2018-07-31T12:27:23.528Z,37.86
2018-07-31T12:29:50.541Z,36.95
2018-07-31T12:32:17.509Z,37.23
2018-07-31T12:34:44.464Z,37.48
2018-07-31T12:37:11.501Z,37.62
2018-07-31T12:39:38.504Z,37.77
2018-07-31T12:42:05.390Z,37.54
2018-07-31T12:44:32.327Z,37.79
2018-07-31T12:46:59.341Z,37.89
2018-07-31T12:49:26.249Z,38.01
2018-07-31T12:51:53.217Z,37.66
2018-07-31T12:54:20.137Z,37.67
2018-07-31T12:56:47.076Z,38.19
2018-07-31T12:59:13.977Z,37.79
2018-07-31T13:01:40.864Z,37.60
2018-07-31T13:04:08.849Z,36.46
2018-07-31T13:06:35.854Z,36.65
2018-07-31T13:09:02.998Z,37.94
2018-07-31T13:11:29.890Z,38.78
2018-07-31T13:13:56.784Z,38.78
2018-07-31T13:16:23.688Z,38.73
2018-07-31T13:18:52.606Z,38.94
2018-07-31T13:21:19.497Z,38.79
2018-07-31T13:23:46.415Z,38.62
2018-07-31T13:26:13.329Z,37.57
2018-07-31T13:28:40.232Z,37.06
2018-07-31T13:31:07.139Z,37.20
2018-07-31T13:33:34.036Z,36.70
2018-07-31T13:36:01.101Z,36.98
2018-07-31T13:38:28.021Z,37.57
2018-07-31T13:40:54.909Z,37.88
2018-07-31T13:43:21.838Z,37.85
2018-07-31T13:45:48.696Z,38.41
2018-07-31T13:48:15.607Z,38.45
2018-07-31T13:50:43.554Z,39.11
2018-07-31T13:53:10.460Z,38.94
2018-07-31T13:55:37.361Z,38.22
2018-07-31T13:58:04.301Z,38.17
2018-07-31T14:00:31.197Z,37.81
2018-07-31T14:02:58.100Z,38.06
2018-07-31T14:05:25.011Z,38.10
2018-07-31T14:07:51.912Z,38.17
2018-07-31T14:10:18.802Z,37.82
2018-07-31T14:12:45.734Z,37.87
2018-07-31T14:15:12.596Z,37.39
2018-07-31T14:17:39.527Z,37.02
2018-07-31T14:20:06.394Z,36.91
2018-07-31T14:22:33.329Z,36.64
2018-07-31T14:25:00.237Z,36.05
2018-07-31T14:27:27.135Z,35.72
2018-07-31T14:29:54.028Z,36.54
2018-07-31T14:32:20.921Z,37.01
2018-07-31T14:34:47.845Z,37.51
2018-07-31T14:37:14.766Z,37.82
2018-07-31T14:39:41.665Z,38.04
2018-07-31T14:42:08.589Z,37.62
2018-07-31T14:44:35.476Z,37.71
2018-07-31T14:47:02.381Z,37.85
2018-07-31T14:49:29.260Z,37.46
2018-07-31T14:51:56.172Z,37.27
2018-07-31T14:54:23.077Z,38.04
2018-07-31T14:56:49.984Z,37.71
2018-07-31T14:59:16.887Z,37.34
2018-07-31T15:01:43.798Z,36.95
2018-07-31T15:04:10.691Z,37.02
2018-07-31T15:06:37.609Z,36.99
2018-07-31T15:09:07.251Z,37.24
2018-07-31T15:11:34.164Z,37.13
2018-07-31T15:14:01.076Z,36.69
2018-07-31T15:16:27.993Z,36.93
2018-07-31T15:18:54.902Z,37.26
2018-07-31T15:21:21.881Z,36.77
2018-07-31T15:23:48.788Z,36.90
2018-07-31T15:26:15.669Z,36.38
2018-07-31T15:28:42.584Z,36.36
2018-07-31T15:31:09.476Z,36.43
2018-07-31T15:33:36.387Z,36.04
2018-07-31T15:36:03.304Z,35.79
2018-07-31T15:38:30.199Z,35.90
2018-07-31T15:40:57.100Z,35.80
2018-07-31T15:43:27.038Z,35.23
2018-07-31T15:45:54.920Z,35.15
2018-07-31T15:48:21.816Z,35.20
2018-07-31T15:50:48.716Z,35.32
2018-07-31T15:53:15.654Z,35.52
2018-07-31T15:55:42.580Z,37.35
2018-07-31T15:58:09.546Z,36.71
2018-07-31T16:00:36.404Z,36.78
2018-07-31T16:03:03.388Z,37.22
2018-07-31T16:05:30.279Z,37.07
2018-07-31T16:07:57.166Z,36.68
2018-07-31T16:10:24.184Z,36.18
2018-07-31T16:12:51.095Z,36.87
2018-07-31T16:15:18.011Z,37.66
2018-07-31T16:17:45.106Z,38.79
2018-07-31T16:20:12.016Z,39.76
2018-07-31T16:22:38.887Z,38.69
2018-07-31T16:25:06.045Z,39.27
2018-07-31T16:27:32.944Z,39.70
2018-07-31T16:29:59.944Z,38.58
2018-07-31T16:32:26.885Z,39.98
2018-07-31T16:34:53.791Z,39.38
2018-07-31T16:37:20.717Z,39.63
2018-07-31T16:39:47.622Z,39.47
2018-07-31T16:42:14.508Z,40.03
2018-07-31T16:44:41.404Z,39.36
2018-07-31T16:47:08.346Z,39.02
2018-07-31T16:49:38.288Z,39.83
2018-07-31T16:52:05.244Z,38.67
2018-07-31T16:54:32.171Z,38.97
2018-07-31T16:56:59.084Z,39.61
2018-07-31T16:59:26.016Z,39.06
2018-07-31T17:01:54.005Z,39.18
2018-07-31T17:04:24.979Z,39.48
2018-07-31T17:06:51.879Z,40.04
2018-07-31T17:09:19.931Z,40.51
2018-07-31T17:11:46.941Z,40.39
2018-07-31T17:14:13.988Z,40.73
2018-07-31T17:16:40.947Z,40.27
2018-07-31T17:19:07.896Z,39.64
2018-07-31T17:21:38.607Z,39.96
2018-07-31T17:24:08.441Z,40.33
2018-07-31T17:26:36.502Z,39.71
2018-07-31T17:29:03.459Z,39.40
2018-07-31T17:31:30.461Z,38.42
2018-07-31T17:33:57.445Z,37.90
2018-07-31T17:36:24.761Z,37.64
2018-07-31T17:38:51.780Z,38.24
2018-07-31T17:41:18.743Z,38.19
2018-07-31T17:43:46.427Z,38.79
2018-07-31T17:46:14.428Z,38.97
2018-07-31T17:48:44.424Z,39.04
2018-07-31T17:51:12.477Z,38.80
2018-07-31T17:53:40.428Z,38.45
2018-07-31T17:56:08.980Z,37.26
2018-07-31T17:58:35.949Z,37.94
2018-07-31T18:01:03.939Z,36.97
2018-07-31T18:03:31.561Z,37.97
2018-07-31T18:05:59.508Z,39.02
2018-07-31T18:08:26.492Z,37.34
2018-07-31T18:10:53.466Z,36.65
2018-07-31T18:13:21.468Z,35.74
2018-07-31T18:15:48.719Z,35.80
2018-07-31T18:18:15.755Z,34.27
2018-07-31T18:20:42.784Z,33.34
2018-07-31T18:23:14.356Z,33.85
2018-07-31T18:25:44.355Z,33.25
2018-07-31T18:28:12.375Z,32.35
2018-07-31T18:30:40.391Z,33.04
2018-07-31T18:33:09.000Z,32.10
2018-07-31T18:35:46.466Z,32.56
2018-07-31T18:38:21.483Z,32.20
2018-07-31T18:40:49.440Z,31.44
2018-07-31T18:43:21.289Z,30.79
2018-07-31T18:45:48.400Z,30.41
2018-07-31T18:48:17.509Z,30.12
2018-07-31T18:50:44.381Z,29.81
2018-07-31T18:53:11.306Z,29.69
2018-07-31T18:55:38.188Z,30.13
2018-07-31T18:58:06.256Z,29.47
2018-07-31T19:00:33.216Z,29.61
2018-07-31T19:03:03.293Z,29.63
2018-07-31T19:05:30.317Z,29.12
2018-07-31T19:07:57.232Z,29.35
2018-07-31T19:10:26.025Z,28.82
2018-07-31T19:12:52.972Z,28.63
2018-07-31T19:15:20.212Z,28.45
2018-07-31T19:17:47.148Z,28.29
2018-07-31T19:20:14.075Z,28.39
2018-07-31T19:22:41.003Z,28.33
2018-07-31T19:25:07.942Z,28.15
2018-07-31T19:27:34.952Z,28.15
2018-07-31T19:30:01.902Z,28.14
2018-07-31T19:32:28.884Z,28.10
2018-07-31T19:34:55.827Z,27.89
2018-07-31T19:37:22.748Z,27.64
2018-07-31T19:39:49.720Z,27.53
2018-07-31T19:42:16.670Z,27.35
2018-07-31T19:44:43.543Z,27.35
2018-07-31T19:47:10.526Z,27.30
2018-07-31T19:49:37.450Z,27.15
2018-07-31T19:52:04.801Z,26.94
2018-07-31T19:54:31.704Z,26.80
2018-07-31T19:56:58.620Z,26.97
2018-07-31T19:59:25.525Z,26.89
2018-07-31T20:01:52.440Z,26.87
2018-07-31T20:04:19.500Z,26.79
2018-07-31T20:06:46.405Z,26.62
2018-07-31T20:09:19.138Z,26.92
2018-07-31T20:11:46.045Z,26.47
2018-07-31T20:14:13.004Z,26.47
2018-07-31T20:16:39.941Z,26.72
2018-07-31T20:19:06.829Z,26.87
2018-07-31T20:21:33.841Z,26.29
2018-07-31T20:24:00.792Z,26.18
2018-07-31T20:26:27.812Z,25.95
2018-07-31T20:28:54.817Z,25.74
2018-07-31T20:31:21.732Z,25.90
2018-07-31T20:33:48.648Z,25.80
2018-07-31T20:36:15.556Z,25.69
2018-07-31T20:38:42.466Z,25.72
2018-07-31T20:41:09.376Z,25.79
2018-07-31T20:43:36.289Z,25.67
2018-07-31T20:46:03.352Z,25.49
2018-07-31T20:48:30.264Z,25.45
2018-07-31T20:50:57.154Z,25.48
2018-07-31T20:53:24.068Z,25.55
2018-07-31T20:55:51.052Z,25.65
2018-07-31T20:58:17.995Z,25.60
2018-07-31T21:00:44.884Z,25.53
2018-07-31T21:03:11.775Z,25.66
2018-07-31T21:05:38.659Z,25.71
2018-07-31T21:08:05.562Z,25.27
2018-07-31T21:10:32.451Z,25.19
2018-07-31T21:12:59.332Z,25.04
2018-07-31T21:15:26.230Z,24.81
2018-07-31T21:17:53.144Z,25.02
2018-07-31T21:20:20.040Z,24.62
2018-07-31T21:22:46.937Z,24.80
2018-07-31T21:25:13.898Z,24.64
2018-07-31T21:27:40.804Z,24.69
2018-07-31T21:30:07.925Z,24.64
2018-07-31T21:32:34.864Z,24.82
2018-07-31T21:35:01.773Z,24.42
2018-07-31T21:37:28.656Z,24.28
2018-07-31T21:39:55.548Z,24.42
2018-07-31T21:42:22.437Z,24.55
2018-07-31T21:44:50.328Z,24.67
2018-07-31T21:47:17.209Z,24.81
2018-07-31T21:49:44.131Z,24.90
2018-07-31T21:52:11.068Z,24.97
2018-07-31T21:54:38.244Z,25.12
2018-07-31T21:57:05.136Z,25.04
2018-07-31T21:59:32.068Z,25.13
2018-07-31T22:01:59.050Z,25.11
2018-07-31T22:04:26.036Z,25.20
2018-07-31T22:06:52.916Z,25.03
2018-07-31T22:09:25.642Z,24.86
2018-07-31T22:11:53.496Z,24.75
2018-07-31T22:14:20.385Z,24.77
2018-07-31T22:16:47.300Z,24.82
2018-07-31T22:19:14.187Z,24.70
2018-07-31T22:21:41.067Z,24.41
2018-07-31T22:24:07.952Z,24.22
2018-07-31T22:26:34.832Z,24.10
2018-07-31T22:29:01.720Z,24.17
2018-07-31T22:31:28.637Z,24.25
2018-07-31T22:33:55.516Z,24.44
2018-07-31T22:36:22.424Z,24.41
2018-07-31T22:38:49.328Z,24.61
2018-07-31T22:41:16.255Z,24.57
2018-07-31T22:43:43.200Z,24.45
2018-07-31T22:46:10.046Z,24.41
2018-07-31T22:48:36.933Z,24.63
2018-07-31T22:51:03.863Z,24.52
2018-07-31T22:53:30.816Z,24.47
2018-07-31T22:55:57.697Z,24.38
2018-07-31T22:58:24.604Z,24.23
2018-07-31T23:00:51.480Z,24.10
2018-07-31T23:03:18.372Z,23.87
2018-07-31T23:05:45.271Z,23.73
2018-07-31T23:08:13.028Z,23.64
2018-07-31T23:10:39.912Z,23.67
2018-07-31T23:13:06.800Z,23.79
2018-07-31T23:15:33.672Z,23.85
2018-07-31T23:18:00.572Z,24.01
2018-07-31T23:20:27.465Z,23.77
2018-07-31T23:22:54.404Z,23.86
2018-07-31T23:25:21.301Z,23.92
2018-07-31T23:27:48.213Z,23.88
2018-07-31T23:30:15.099Z,23.90
2018-07-31T23:32:42.120Z,24.03
2018-07-31T23:35:09.039Z,24.00
2018-07-31T23:37:36.937Z,24.05
2018-07-31T23:40:04.694Z,23.75
2018-07-31T23:42:32.018Z,23.60
2018-07-31T23:44:59.006Z,23.90
2018-07-31T23:47:26.930Z,24.08
2018-07-31T23:49:53.812Z,24.05
2018-07-31T23:52:20.738Z,24.19
2018-07-31T23:54:47.755Z,24.27
2018-07-31T23:57:14.814Z,23.83
2018-07-31T23:59:41.700Z,24.21
